Aérodrome :
LOGIN :

S'inscrire | Disclaimer

   EN    FR    IT 

 










Légende :    VFR   VFR Marginal   IFR   IFR Intensif   IFR Très Intensif
Visi : 
Plafond : 
>= 8 km
>= 3000ft
5 à 8 km
1000 à 3000 ft
1500m à 5 km
500 à 1000 ft
800 à 1500m
200 à 500 ft
< 800m
< 200 ft
Symboles :   Orages  Brouillard  Fortes neiges  Fortes précipitations  Vent > 20 kt
SIGMETs :   Divers  Orages  Givrage  Turbulence  Onde Orograph.  Cendres Volcan.






- Altitude de l'aérodrome : 1411 ft
- Code IATA : ZHI


LSZG - Grenchen

DERNIER METAR :
  • 272120Z AUTO 31009KT 2400 SN BR FEW006 SCT009 02/M00 Q1013 RERASN

METARs EXPIRÉS :
  • 272050Z AUTO 31012KT 9999 -RA BKN033 05/M02 Q1011
  • 272020Z AUTO 27019G31KT 9999 FEW034 BKN055 04/M01 Q1010 RERA
  • 271950Z AUTO 27014G26KT 230V320 9999 -RA FEW033 04/00 Q1009
  • 271920Z AUTO 27023KT 9999 -RA BKN055 SCT120 05/M00 Q1007
  • 271850Z AUTO 28026G39KT 9999 NSC 05/M00 Q1005 RERA

TAF TAF LSZG
Valide du 27 à 15h jusqu'au 28 à 00h UTC


271425Z 2715/2724 22005KT 2500 -SN BKN006
BECMG 2715/2717 24015G30KT
TEMPO 2716/2719 25025G40KT 8000 SHRA BKN020
TEMPO 2718/2724 0800 +SHSN VV003
ATIS : +41 32 396 96 33



MET'MAP, la Météo Aéronautique d'un coup d'oeil ! - Copyright ORBIFLY Décembre 2007 - Disclaimer

ORBIFLY MET'MAP TEAM :

Programmation & Développement : Alexandra Zaïnal
Sur une idée originale de : Baudouin d'Aumeries
Assistance à la programmation : Marc-Olivier Méhu
Soutien technique & logistique : Manuel Goepfert

Contact : metmap@orbifly.com




SOURCES & CREDITS :

   NOAA